createdAt,value
2019-05-19T00:01:16.753Z,18.07
2019-05-19T00:06:22.318Z,17.97
2019-05-19T00:11:27.780Z,17.85
2019-05-19T00:16:33.247Z,17.74
2019-05-19T00:21:38.797Z,17.61
2019-05-19T00:26:44.243Z,17.51
2019-05-19T00:31:49.765Z,17.40
2019-05-19T00:36:55.274Z,17.30
2019-05-19T00:42:00.902Z,17.22
2019-05-19T00:47:06.384Z,17.16
2019-05-19T00:52:11.927Z,17.11
2019-05-19T00:57:17.454Z,17.06
2019-05-19T01:02:22.974Z,17.03
2019-05-19T01:07:28.521Z,17.05
2019-05-19T01:12:34.125Z,17.05
2019-05-19T01:17:39.640Z,17.06
2019-05-19T01:22:45.193Z,17.04
2019-05-19T01:27:50.788Z,16.99
2019-05-19T01:32:56.284Z,16.92
2019-05-19T01:38:01.731Z,16.84
2019-05-19T01:43:07.181Z,16.76
2019-05-19T01:48:12.630Z,16.69
2019-05-19T01:53:18.054Z,16.63
2019-05-19T01:58:23.482Z,16.57
2019-05-19T02:03:28.958Z,16.51
2019-05-19T02:08:34.478Z,16.49
2019-05-19T02:13:39.923Z,16.44
2019-05-19T02:18:45.449Z,16.40
2019-05-19T02:23:50.902Z,16.36
2019-05-19T02:28:56.396Z,16.35
2019-05-19T02:34:01.817Z,16.31
2019-05-19T02:39:07.900Z,16.27
2019-05-19T02:44:13.311Z,16.23
2019-05-19T02:49:19.238Z,16.19
2019-05-19T02:54:24.750Z,16.14
2019-05-19T02:59:30.822Z,16.10
2019-05-19T03:04:36.234Z,16.04
2019-05-19T03:09:41.701Z,15.97
2019-05-19T03:14:47.164Z,15.90
2019-05-19T03:19:52.607Z,15.81
2019-05-19T03:24:57.992Z,15.72
2019-05-19T03:30:22.330Z,15.66
2019-05-19T03:35:27.876Z,15.61
2019-05-19T03:40:33.375Z,15.55
2019-05-19T03:45:38.803Z,15.51
2019-05-19T03:50:44.370Z,15.48
2019-05-19T03:55:49.754Z,15.47
2019-05-19T04:00:55.196Z,15.49
2019-05-19T04:06:00.710Z,15.55
2019-05-19T04:11:06.119Z,15.61
2019-05-19T04:16:11.682Z,15.69
2019-05-19T04:21:17.207Z,15.80
2019-05-19T04:26:22.657Z,15.93
2019-05-19T04:31:28.246Z,16.07
2019-05-19T04:36:33.664Z,16.22
2019-05-19T04:41:40.333Z,16.39
2019-05-19T04:46:46.078Z,16.60
2019-05-19T04:52:06.132Z,16.85
2019-05-19T04:57:00.488Z,17.14
2019-05-19T05:02:05.932Z,17.48
2019-05-19T05:07:11.367Z,17.83
2019-05-19T05:12:16.825Z,18.18
2019-05-19T05:17:22.327Z,18.52
2019-05-19T05:22:27.856Z,18.81
2019-05-19T05:27:33.339Z,19.05
2019-05-19T05:32:38.847Z,19.36
2019-05-19T05:37:44.367Z,19.68
2019-05-19T05:42:49.833Z,20.06
2019-05-19T05:47:55.256Z,20.53
2019-05-19T05:53:00.796Z,20.97
2019-05-19T05:58:06.281Z,21.44
2019-05-19T06:03:11.780Z,21.85
2019-05-19T06:08:17.341Z,22.23
2019-05-19T06:13:22.881Z,22.63
2019-05-19T06:18:28.361Z,22.88
2019-05-19T06:23:33.923Z,22.89
2019-05-19T06:28:39.377Z,22.81
2019-05-19T06:33:44.974Z,22.74
2019-05-19T06:38:50.448Z,22.78
2019-05-19T06:43:55.910Z,22.82
2019-05-19T06:49:01.418Z,22.89
2019-05-19T06:54:06.917Z,23.13
2019-05-19T06:59:12.411Z,23.42
2019-05-19T07:04:17.946Z,23.92
2019-05-19T07:09:23.441Z,24.50
2019-05-19T07:14:29.009Z,25.02
2019-05-19T07:19:34.566Z,25.43
2019-05-19T07:24:39.961Z,25.70
2019-05-19T07:29:45.445Z,25.91
2019-05-19T07:34:50.912Z,26.08
2019-05-19T07:39:56.847Z,26.19
2019-05-19T07:45:02.376Z,26.19
2019-05-19T07:50:07.846Z,26.20
2019-05-19T07:55:13.349Z,26.34
2019-05-19T08:00:18.955Z,26.87
2019-05-19T08:05:24.381Z,28.21
2019-05-19T08:10:29.830Z,29.44
2019-05-19T08:15:35.362Z,30.50
2019-05-19T08:20:41.281Z,31.30
2019-05-19T08:25:46.984Z,31.75
2019-05-19T08:30:52.833Z,32.44
2019-05-19T08:35:58.616Z,32.96
2019-05-19T08:41:04.352Z,34.73
2019-05-19T08:46:10.163Z,37.83
2019-05-19T08:51:15.923Z,39.83
2019-05-19T08:56:21.643Z,39.75
2019-05-19T09:01:27.473Z,38.80
2019-05-19T09:06:33.364Z,38.21
2019-05-19T09:11:39.265Z,39.74
2019-05-19T09:16:45.072Z,42.27
2019-05-19T09:21:50.892Z,43.40
2019-05-19T09:26:56.693Z,45.14
2019-05-19T09:32:02.603Z,45.79
2019-05-19T09:37:08.426Z,45.59
2019-05-19T09:42:14.189Z,44.89
2019-05-19T09:47:19.951Z,44.02
2019-05-19T09:52:25.833Z,42.48
2019-05-19T09:57:31.797Z,40.78
2019-05-19T10:02:37.570Z,39.23
2019-05-19T10:07:43.344Z,37.77
2019-05-19T10:12:49.156Z,36.27
2019-05-19T10:17:54.967Z,35.25
2019-05-19T10:23:00.674Z,34.44
2019-05-19T10:28:09.215Z,33.69
2019-05-19T10:33:14.933Z,33.30
2019-05-19T10:38:20.736Z,32.60
2019-05-19T10:43:26.664Z,32.09
2019-05-19T10:48:32.394Z,31.76
2019-05-19T10:53:38.206Z,31.52
2019-05-19T10:58:44.029Z,31.17
2019-05-19T11:03:49.808Z,30.79
2019-05-19T11:08:55.639Z,30.51
2019-05-19T11:14:01.381Z,30.35
2019-05-19T11:19:07.108Z,30.19
2019-05-19T11:24:12.925Z,30.08
2019-05-19T11:29:18.699Z,29.95
2019-05-19T11:34:24.440Z,29.86
2019-05-19T11:39:30.122Z,29.74
2019-05-19T11:44:35.885Z,29.56
2019-05-19T11:49:41.626Z,29.46
2019-05-19T11:54:47.412Z,29.43
2019-05-19T11:59:53.170Z,29.47
2019-05-19T12:04:59.040Z,29.57
2019-05-19T12:10:05.000Z,29.74
2019-05-19T12:15:11.751Z,29.99
2019-05-19T12:20:17.553Z,30.31
2019-05-19T12:25:23.386Z,30.50
2019-05-19T12:30:29.390Z,30.63
2019-05-19T12:35:35.379Z,30.82
2019-05-19T12:40:41.796Z,30.99
2019-05-19T12:45:47.594Z,31.14
2019-05-19T12:50:53.370Z,31.26
2019-05-19T12:55:59.139Z,31.26
2019-05-19T13:01:04.960Z,31.37
2019-05-19T13:06:10.806Z,31.61
2019-05-19T13:11:16.552Z,31.98
2019-05-19T13:16:22.363Z,32.37
2019-05-19T13:21:28.077Z,32.72
2019-05-19T13:26:33.852Z,33.19
2019-05-19T13:31:39.619Z,33.49
2019-05-19T13:36:45.378Z,33.54
2019-05-19T13:41:51.190Z,32.08
2019-05-19T13:46:56.905Z,29.68
2019-05-19T13:52:02.589Z,27.60
2019-05-19T13:57:12.350Z,26.18
2019-05-19T14:02:15.250Z,25.10
2019-05-19T14:07:20.821Z,24.16
2019-05-19T14:12:26.518Z,23.49
2019-05-19T14:17:31.952Z,23.02
2019-05-19T14:22:37.381Z,22.56
2019-05-19T14:27:42.890Z,22.10
2019-05-19T14:32:48.533Z,21.64
2019-05-19T14:37:54.000Z,21.32
2019-05-19T14:43:02.258Z,21.10
2019-05-19T14:48:07.676Z,20.77
2019-05-19T14:53:13.139Z,20.43
2019-05-19T14:58:18.786Z,20.08
2019-05-19T15:03:24.373Z,19.92
2019-05-19T15:08:29.861Z,19.91
2019-05-19T15:13:35.353Z,19.93
2019-05-19T15:18:40.891Z,20.00
2019-05-19T15:23:46.406Z,20.09
2019-05-19T15:28:51.880Z,20.07
2019-05-19T15:33:57.725Z,19.93
2019-05-19T15:39:03.873Z,19.83
2019-05-19T15:44:09.840Z,19.90
2019-05-19T15:49:15.394Z,20.10
2019-05-19T15:54:20.983Z,20.35
2019-05-19T15:59:26.406Z,20.56
2019-05-19T16:04:31.874Z,20.62
2019-05-19T16:09:37.362Z,20.69
2019-05-19T16:14:42.914Z,20.87
2019-05-19T16:19:48.295Z,21.05
2019-05-19T16:24:53.923Z,21.16
2019-05-19T16:29:59.336Z,21.25
2019-05-19T16:35:04.808Z,21.22
2019-05-19T16:40:10.259Z,21.22
2019-05-19T16:45:16.451Z,21.22
2019-05-19T16:50:22.498Z,21.33
2019-05-19T16:55:29.952Z,21.41
2019-05-19T17:00:35.374Z,21.42
2019-05-19T17:05:40.919Z,21.41
2019-05-19T17:10:47.103Z,21.35
2019-05-19T17:15:52.648Z,21.17
2019-05-19T17:20:58.510Z,20.97
2019-05-19T17:26:04.074Z,20.75
2019-05-19T17:31:09.620Z,20.54
2019-05-19T17:36:15.030Z,20.42
2019-05-19T17:41:20.552Z,20.30
2019-05-19T17:46:26.075Z,20.14
2019-05-19T17:51:31.619Z,20.02
2019-05-19T17:56:37.064Z,19.87
2019-05-19T18:01:42.902Z,19.75
2019-05-19T18:06:48.500Z,19.64
2019-05-19T18:11:54.004Z,19.53
2019-05-19T18:16:59.398Z,19.47
2019-05-19T18:22:04.864Z,19.39
2019-05-19T18:27:10.378Z,19.28
2019-05-19T18:32:15.956Z,19.16
2019-05-19T18:37:21.597Z,19.01
2019-05-19T18:42:27.185Z,18.90
2019-05-19T18:47:32.740Z,18.81
2019-05-19T18:52:38.202Z,18.73
2019-05-19T18:57:43.752Z,18.65
2019-05-19T19:02:49.214Z,18.57
2019-05-19T19:07:55.818Z,18.48
2019-05-19T19:13:01.327Z,18.38
2019-05-19T19:18:07.121Z,18.34
2019-05-19T19:23:12.571Z,18.31
2019-05-19T19:28:18.167Z,18.30
2019-05-19T19:33:23.656Z,18.31
2019-05-19T19:38:29.105Z,18.32
2019-05-19T19:43:34.878Z,18.37
2019-05-19T19:48:40.347Z,18.40
2019-05-19T19:53:45.930Z,18.44
2019-05-19T19:58:51.558Z,18.45
2019-05-19T20:03:57.033Z,18.45
2019-05-19T20:09:02.718Z,18.45
2019-05-19T20:14:08.154Z,18.43
2019-05-19T20:19:13.635Z,18.42
2019-05-19T20:24:19.121Z,18.39
2019-05-19T20:29:24.531Z,18.37
2019-05-19T20:34:29.965Z,18.28
2019-05-19T20:39:35.402Z,18.14
2019-05-19T20:44:40.866Z,17.96
2019-05-19T20:49:46.432Z,17.75
2019-05-19T20:54:51.999Z,17.55
2019-05-19T20:59:57.495Z,17.35
2019-05-19T21:05:03.021Z,17.17
2019-05-19T21:10:08.767Z,17.00
2019-05-19T21:15:14.199Z,16.85
2019-05-19T21:20:19.651Z,16.71
2019-05-19T21:25:25.116Z,16.59
2019-05-19T21:30:30.674Z,16.47
2019-05-19T21:35:36.449Z,16.35
2019-05-19T21:40:41.940Z,16.25
2019-05-19T21:45:47.535Z,16.16
2019-05-19T21:50:53.272Z,16.06
2019-05-19T21:55:58.907Z,15.98
2019-05-19T22:01:04.516Z,15.92
2019-05-19T22:06:09.974Z,15.84
2019-05-19T22:11:15.636Z,15.77
2019-05-19T22:16:21.230Z,15.71
2019-05-19T22:21:26.800Z,15.64
2019-05-19T22:26:32.314Z,15.58
2019-05-19T22:31:37.765Z,15.52
2019-05-19T22:36:43.288Z,15.45
2019-05-19T22:41:48.733Z,15.40
2019-05-19T22:46:54.213Z,15.34
2019-05-19T22:51:59.659Z,15.30
2019-05-19T22:57:05.076Z,15.24
2019-05-19T23:02:10.570Z,15.22
2019-05-19T23:07:16.011Z,15.16
2019-05-19T23:12:21.497Z,15.11
2019-05-19T23:17:26.940Z,15.07
2019-05-19T23:22:32.460Z,15.03
2019-05-19T23:27:37.938Z,15.01
2019-05-19T23:32:43.435Z,14.99
2019-05-19T23:37:48.998Z,14.96
2019-05-19T23:42:54.755Z,14.93
2019-05-19T23:48:00.216Z,14.90
2019-05-19T23:53:05.647Z,14.88
2019-05-19T23:58:11.198Z,14.87
